Latest Coastal Weather Observations for Cato Island

IDQ60701

Issued at 3:55 pm EST Saturday 20 September 2014 (issued every 10 minutes, with the page automatically refreshed every 10 minutes)

About coastal observations | Map of coastal stations | Coastal observations for QLD | Marine services | Other Formats
Station Details ID: 200601 Name: CATO ISLAND Lat: -23.25 Lon: 155.54 Height: 6.3 m
Data from the previous 72 hours. | See also: Recent months for locations in Queensland
Date/Time
EST
Temp

°C
Wind Pressure Rain
since 9am
mm
Weather Cloud Vis
km
Sea
Height
m
Swell
Dir
 
Speed
knots
Gust
knots
hPa Trend Height
m
Period
s
Dir
20/03:30pm 21.4 ESE 14 17 1018.1 - - - - - - - - -
20/03:00pm 21.4 ESE 14 16 1017.9 - - - - - - - - -
20/02:30pm 21.5 ESE 12 15 1018.0 - - - - - - - - -
20/02:00pm 21.7 ESE 12 14 1018.1 - - - - - - - - -
20/01:30pm 22.0 ESE 11 14 1018.4 - - - - - - - - -
20/01:00pm 21.9 E 11 14 1018.6 - - - - - - - - -
20/12:30pm 22.0 E 11 14 1018.9 - - - - - - - - -
20/12:00pm 22.1 E 11 15 1019.1 - - - - - - - - -
20/11:30am 22.7 E 11 14 1019.4 - - - - - - - - -
20/11:00am 22.1 E 12 15 1019.8 - - - - - - - - -
20/10:30am 22.0 E 13 15 1020.0 - - - - - - - - -
20/10:00am 21.9 E 13 15 1020.0 - - - - - - - - -
20/09:30am 21.8 E 14 17 1019.9 - - - - - - - - -
20/09:00am 21.9 E 12 15 1020.0 - - - - - - - - -
20/08:30am 21.9 E 12 15 1019.9 - - - - - - - - -
20/08:00am 21.6 E 11 13 1019.8 - - - - - - - - -
20/07:30am 21.5 E 11 14 1019.8 - - - - - - - - -
20/07:00am 21.5 ENE 11 14 1019.3 - - - - - - - - -
20/06:30am 21.0 ENE 12 15 1019.0 - - - - - - - - -
20/06:00am 20.8 E 12 15 1018.8 - - - - - - - - -
20/05:30am 20.4 ENE 13 18 1018.3 - - - - - - - - -
20/05:00am 20.2 ENE 15 19 1017.8 - - - - - - - - -
20/04:30am 20.4 ENE 14 18 1017.4 - - - - - - - - -
20/04:00am 20.5 ENE 15 19 1017.2 - - - - - - - - -
20/03:30am 20.5 ENE 13 17 1017.4 - - - - - - - - -
20/03:00am 20.6 ENE 15 17 1017.4 - - - - - - - - -
20/02:30am 20.6 ENE 14 18 1017.8 - - - - - - - - -
20/02:00am 20.6 ENE 14 17 1018.2 - - - - - - - - -
20/01:30am 20.8 E 15 19 1018.5 - - - - - - - - -
20/01:00am 20.7 NE 14 17 1018.7 - - - - - - - - -
20/12:30am 20.9 ENE 16 20 1019.0 - - - - - - - - -
20/12:00am 21.0 ENE 15 19 1019.4 - - - - - - - - -
 
Date/Time
EST
Temp

°C
Wind Pressure Rain
since 9am
mm
Weather Cloud Vis
km
Sea
Height
m
Swell
Dir
 
Speed
knots
Gust
knots
hPa Trend Height
m
Period
s
Dir
19/11:30pm 21.0 E 16 20 1019.7 - - - - - - - - -
19/11:00pm 21.2 E 15 20 1019.8 - - - - - - - - -
19/10:30pm 21.2 E 16 20 1020.0 - - - - - - - - -
19/10:00pm 21.4 E 17 19 1020.0 - - - - - - - - -
19/09:30pm 21.4 E 15 18 1020.1 - - - - - - - - -
19/09:00pm 21.6 E 17 21 1020.1 - - - - - - - - -
19/08:30pm 21.5 E 17 20 1020.0 - - - - - - - - -
19/08:00pm 21.6 E 15 18 1019.8 - - - - - - - - -
19/07:30pm 21.7 E 16 20 1019.5 - - - - - - - - -
19/07:00pm 21.8 E 16 20 1018.9 - - - - - - - - -
19/06:30pm 21.8 ESE 16 21 1018.7 - - - - - - - - -
19/06:00pm 21.8 ESE 15 19 1018.3 - - - - - - - - -
19/05:30pm 21.9 E 15 19 1018.0 - - - - - - - - -
19/05:00pm 21.9 ESE 15 19 1017.6 - - - - - - - - -
19/04:30pm 22.2 ESE 15 20 1017.4 - - - - - - - - -
19/04:00pm 22.4 SE 15 18 1017.0 - - - - - - - - -
19/03:30pm 22.4 ESE 16 20 1016.7 - - - - - - - - -
19/03:00pm 22.6 SE 17 22 1016.7 - - - - - - - - -
19/02:30pm 22.5 SE 14 17 1016.6 - - - - - - - - -
19/02:00pm 22.6 ESE 13 15 1017.0 - - - - - - - - -
19/01:30pm 22.8 ESE 11 14 1017.3 - - - - - - - - -
19/01:00pm 22.9 ESE 10 12 1017.8 - - - - - - - - -
19/12:30pm 22.7 SE 10 13 1018.2 - - - - - - - - -
19/12:00pm 23.1 SE 11 13 1018.6 - - - - - - - - -
19/11:30am 22.8 SE 12 15 1019.0 - - - - - - - - -
19/11:00am 22.6 ESE 13 15 1019.2 - - - - - - - - -
19/10:30am 22.8 ESE 13 17 1019.7 - - - - - - - - -
19/10:00am 22.3 ESE 12 15 1020.0 - - - - - - - - -
19/09:30am 22.7 ESE 13 15 1020.0 - - - - - - - - -
19/09:00am 22.5 ESE 12 15 1020.0 - - - - - - - - -
19/08:30am 22.2 ESE 13 16 1019.9 - - - - - - - - -
19/08:00am 22.3 ESE 13 16 1019.7 - - - - - - - - -
19/07:30am 22.1 ESE 13 16 1019.7 - - - - - - - - -
19/07:00am 22.1 ESE 12 15 1019.5 - - - - - - - - -
19/06:30am 21.9 ESE 12 14 1019.2 - - - - - - - - -
19/06:00am 21.6 ESE 11 14 1019.0 - - - - - - - - -
19/05:30am 21.5 E 11 13 1018.7 - - - - - - - - -
19/05:00am 21.5 ESE 11 13 1018.5 - - - - - - - - -
19/04:30am 21.6 ESE 10 13 1018.2 - - - - - - - - -
19/04:00am 21.5 SE 11 13 1017.9 - - - - - - - - -
19/03:30am 21.6 SE 13 15 1017.8 - - - - - - - - -
19/03:00am 21.7 SE 13 16 1017.6 - - - - - - - - -
19/02:30am 21.7 SE 14 15 1017.6 - - - - - - - - -
19/02:00am 21.8 SE 15 18 1017.7 - - - - - - - - -
19/01:30am 21.8 SE 13 16 1017.9 - - - - - - - - -
19/01:00am 21.8 SE 14 16 1018.0 - - - - - - - - -
19/12:30am 21.9 SE 14 17 1018.2 - - - - - - - - -
19/12:00am 22.0 SSE 14 16 1018.3 - - - - - - - - -
 
Date/Time
EST
Temp

°C
Wind Pressure Rain
since 9am
mm
Weather Cloud Vis
km
Sea
Height
m
Swell
Dir
 
Speed
knots
Gust
knots
hPa Trend Height
m
Period
s
Dir
18/11:30pm 22.2 SSE 14 17 1018.6 - - - - - - - - -
18/11:00pm 22.1 SSE 15 17 1018.8 - - - - - - - - -
18/10:30pm 22.3 SSE 15 17 1018.7 - - - - - - - - -
18/10:00pm 22.4 SE 15 18 1018.7 - - - - - - - - -
18/09:30pm 22.4 SE 15 17 1018.6 - - - - - - - - -
18/09:00pm 22.7 SSE 15 18 1018.4 - - - - - - - - -
18/08:30pm 22.6 SSE 15 17 1018.3 - - - - - - - - -
18/08:00pm 22.6 SE 15 17 1018.0 - - - - - - - - -
18/07:30pm 22.8 SE 15 17 1017.7 - - - - - - - - -
18/07:00pm 22.7 SSE 15 17 1017.3 - - - - - - - - -
18/06:30pm 22.6 SSE 13 15 1017.0 - - - - - - - - -
18/06:00pm 22.7 S 12 13 1016.7 - - - - - - - - -
18/05:30pm 22.5 S 12 13 1016.5 - - - - - - - - -
18/05:00pm 22.9 S 12 14 1016.3 - - - - - - - - -
18/04:30pm 23.8 SW 11 13 1015.9 - - - - - - - - -
18/04:00pm 23.9 SW 12 14 1015.7 - - - - - - - - -
18/03:30pm 24.5 WSW 12 14 1015.5 - - - - - - - - -
18/03:00pm 25.0 SW 13 14 1015.4 - - - - - - - - -
18/02:30pm 25.5 WSW 12 15 1015.5 - - - - - - - - -
18/02:00pm 25.0 WSW 12 15 1015.6 - - - - - - - - -
18/01:30pm 25.3 WSW 13 15 1015.9 - - - - - - - - -
18/01:00pm 25.8 WSW 12 15 1016.2 - - - - - - - - -
18/12:30pm 26.1 W 11 13 1016.6 - - - - - - - - -
18/12:00pm 25.9 W 11 13 1016.9 - - - - - - - - -
18/11:30am 26.0 WNW 11 14 1017.3 - - - - - - - - -
18/11:00am 26.4 W 11 13 1017.6 - - - - - - - - -
18/10:30am 25.7 W 1 3 1018.1 - - - - - - - - -
18/10:00am 25.3 W 10 13 1018.3 - - - - - - - - -
18/09:30am 24.2 W 13 15 1018.5 - - - - - - - - -
18/09:00am 24.2 W 13 15 1018.6 - - - - - - - - -
18/08:30am 24.6 WNW 11 13 1018.5 - - - - - - - - -
18/08:00am 23.9 WNW 11 12 1018.4 - - - - - - - - -
18/07:30am 23.5 NW 10 13 1018.1 - - - - - - - - -
18/07:00am 22.6 NW 10 12 1017.6 - - - - - - - - -
18/06:30am 22.0 NW 10 13 1017.3 - - - - - - - - -
18/06:00am 22.0 NW 9 11 1017.0 - - - - - - - - -
18/05:00am 21.5 N 14 17 1015.8 - - - - - - - - -
18/04:30am 21.6 NNW 13 15 1015.6 - - - - - - - - -
18/04:00am 21.7 NNW 12 15 1015.5 - - - - - - - - -
18/03:30am 21.6 NNW 14 17 1015.2 - - - - - - - - -
18/03:00am 21.6 NNW 14 16 1015.3 - - - - - - - - -
18/02:30am 21.7 N 13 16 1015.6 - - - - - - - - -
18/02:00am 21.8 NNW 13 15 1015.7 - - - - - - - - -
18/01:30am 21.7 NNW 12 15 1016.0 - - - - - - - - -
18/01:00am 21.7 NNW 11 14 1016.2 - - - - - - - - -
18/12:30am 21.7 N 12 15 1016.1 - - - - - - - - -
18/12:00am 21.6 N 13 15 1016.2 - - - - - - - - -
 
Date/Time
EST
Temp

°C
Wind Pressure Rain
since 9am
mm
Weather Cloud Vis
km
Sea
Height
m
Swell
Dir
 
Speed
knots
Gust
knots
hPa Trend Height
m
Period
s
Dir
17/11:30pm 21.6 N 11 13 1016.5 - - - - - - - - -
17/11:00pm 21.7 N 15 19 1016.2 - - - - - - - - -
17/10:30pm 21.7 N 11 14 1016.5 - - - - - - - - -
17/10:00pm 21.8 N 1 2 1016.2 - - - - - - - - -
17/09:30pm 21.7 NNW 1 2 1016.5 - - - - - - - - -
17/09:00pm 21.9 CALM 0 3 1016.7 - - - - - - - - -
17/08:30pm 21.8 CALM 0 3 1016.8 - - - - - - - - -
17/08:00pm 21.9 CALM 0 3 1016.7 - - - - - - - - -
17/07:30pm 21.7 CALM 0 2 1016.4 - - - - - - - - -
17/07:00pm 21.7 CALM 0 1 1016.0 - - - - - - - - -
17/06:30pm 21.6 CALM 0 2 1015.6 - - - - - - - - -
17/06:00pm 21.4 NW 1 6 1015.4 - - - - - - - - -
17/05:30pm 21.8 WNW 6 7 1015.1 - - - - - - - - -
17/05:00pm 22.8 W 7 9 1015.1 - - - - - - - - -
17/04:30pm 23.5 W 8 10 1014.8 - - - - - - - - -
17/04:00pm 23.9 W 8 10 1014.9 - - - - - - - - -

Other Formats:

Comma delimited format used in spreadsheet applications
http://www.bom.gov.au/fwo/IDQ60701/IDQ60701.94394.axf

JavaScript Object Notation format (JSON) in row-major order
http://www.bom.gov.au/fwo/IDQ60701/IDQ60701.94394.json